Time;durP1;ratioP1;P1;durP2;ratioP2;P2;SDS_P1;SDS_P2;PMS_P1;PMS_P2;Temp;Humidity;BMP_temperature;BMP_pressure;BME280_temperature;BME280_humidity;BME280_pressure;Samples;Min_cycle;Max_cycle;Signal;HPM_P1;HPM_P2
2023/07/26 00:00:29;;;;;;;;;5.20;4.60;;;;;22.66;47.16;97823.94;5090557;28;8848;-75
2023/07/26 00:03:18;;;;;;;;;8.20;8.00;;;;;22.33;47.97;97820.88;5090764;28;8828;-76
2023/07/26 00:05:47;;;;;;;;;7.00;5.00;;;;;22.36;47.93;97831.31;5090547;28;8848;-75
2023/07/26 00:08:16;;;;;;;;;12.80;8.40;;;;;22.35;48.15;97826.94;5091580;28;8874;-75
2023/07/26 00:10:47;;;;;;;;;8.40;8.40;;;;;22.36;48.42;97836.66;5091111;28;8856;-76
2023/07/26 00:13:17;;;;;;;;;9.20;6.80;;;;;22.40;48.43;97838.03;5090571;28;8948;-77
2023/07/26 00:15:46;;;;;;;;;6.20;6.20;;;;;22.57;48.04;97833.72;5088525;28;8974;-76
2023/07/26 00:18:15;;;;;;;;;5.20;5.20;;;;;22.72;47.56;97826.00;5089151;28;8835;-76
2023/07/26 00:20:43;;;;;;;;;7.00;7.00;;;;;22.64;47.66;97829.44;5085187;28;8860;-74
2023/07/26 00:23:12;;;;;;;;;7.00;6.00;;;;;22.71;47.33;97832.34;5049836;28;8931;-75
2023/07/26 00:25:41;;;;;;;;;6.80;6.80;;;;;22.59;47.71;97829.88;5064168;28;8985;-77
2023/07/26 00:28:11;;;;;;;;;5.80;5.80;;;;;22.70;47.49;97839.53;5069850;28;8872;-76
2023/07/26 00:30:39;;;;;;;;;7.20;6.80;;;;;22.58;47.96;97844.28;5069870;28;8854;-76
2023/07/26 00:33:08;;;;;;;;;5.60;5.20;;;;;22.61;48.02;97845.81;5084595;28;8839;-76
2023/07/26 00:35:41;;;;;;;;;8.40;6.80;;;;;22.47;48.52;97847.16;5088620;28;8898;-76
2023/07/26 00:38:10;;;;;;;;;6.40;6.00;;;;;22.46;48.60;97858.84;5105111;28;8840;-77
2023/07/26 00:40:39;;;;;;;;;8.60;7.20;;;;;22.47;48.54;97879.31;5072414;28;9027;-75
2023/07/26 00:43:08;;;;;;;;;8.60;7.00;;;;;22.39;49.04;97874.69;5051774;28;8960;-75
2023/07/26 00:45:41;;;;;;;;;9.20;7.60;;;;;22.20;50.12;97872.91;5051586;28;8976;-74
2023/07/26 00:48:11;;;;;;;;;7.60;6.40;;;;;22.25;49.90;97869.81;5078551;28;8832;-75
2023/07/26 00:50:42;;;;;;;;;8.40;7.40;;;;;22.10;50.51;97865.91;5104768;28;8873;-75
2023/07/26 00:53:13;;;;;;;;;7.20;7.20;;;;;22.04;50.91;97880.72;5087669;28;8836;-77
2023/07/26 00:55:43;;;;;;;;;5.80;5.80;;;;;22.11;50.65;97875.59;5085309;28;8846;-75
2023/07/26 00:58:15;;;;;;;;;2.60;1.40;;;;;22.01;50.99;97879.19;5084632;28;8880;-74
2023/07/26 01:00:46;;;;;;;;;8.20;7.80;;;;;21.82;51.96;97873.88;5066477;28;8858;-76
2023/07/26 01:03:15;;;;;;;;;9.40;8.20;;;;;21.99;51.53;97878.50;5075925;28;8884;-75
2023/07/26 01:05:56;;;;;;;;;6.80;6.40;;;;;22.04;51.35;97886.91;5089382;28;8864;-76
2023/07/26 01:08:46;;;;;;;;;7.80;7.80;;;;;21.83;51.92;97887.09;5087861;28;8843;-75
2023/07/26 01:11:25;;;;;;;;;9.00;8.00;;;;;21.92;52.12;97887.22;5088870;28;8856;-76
2023/07/26 01:14:00;;;;;;;;;9.00;8.60;;;;;21.97;51.86;97891.13;5052145;28;8840;-77
2023/07/26 01:16:31;;;;;;;;;9.00;9.00;;;;;21.86;52.14;97898.50;5089476;28;8846;-76
2023/07/26 01:18:59;;;;;;;;;10.20;9.20;;;;;21.87;52.50;97900.19;5068418;28;8973;-77
2023/07/26 01:21:32;;;;;;;;;8.20;8.20;;;;;21.79;53.13;97908.94;5074918;28;8961;-76
2023/07/26 01:24:01;;;;;;;;;11.40;7.80;;;;;21.86;53.02;97910.03;5067100;28;8862;-75
2023/07/26 01:26:30;;;;;;;;;9.80;9.80;;;;;21.63;53.39;97913.06;5067326;28;8862;-76
2023/07/26 01:28:59;;;;;;;;;8.20;6.00;;;;;20.76;56.40;97916.44;5067510;28;8839;-76
2023/07/26 01:31:28;;;;;;;;;10.80;6.80;;;;;20.53;57.67;97915.00;5067167;28;8854;-76
2023/07/26 01:33:59;;;;;;;;;10.00;7.60;;;;;20.61;57.71;97915.97;5068239;28;8858;-76
2023/07/26 01:36:29;;;;;;;;;9.60;6.80;;;;;19.85;61.19;97924.31;5075109;28;8832;-78
2023/07/26 01:39:02;;;;;;;;;9.40;7.00;;;;;19.30;63.97;97934.25;5088458;28;8828;-76
2023/07/26 01:41:32;;;;;;;;;10.60;10.00;;;;;19.16;64.90;97927.44;5080208;28;8972;-76
2023/07/26 01:44:01;;;;;;;;;7.80;7.80;;;;;19.36;64.64;97925.75;5067160;28;8846;-77
2023/07/26 01:46:30;;;;;;;;;8.20;8.20;;;;;19.49;64.49;97937.09;5068402;28;9615;-79
2023/07/26 01:48:59;;;;;;;;;13.40;10.00;;;;;19.69;64.07;97934.63;5067598;28;8846;-74
2023/07/26 01:51:28;;;;;;;;;8.40;8.00;;;;;20.13;62.68;97934.44;5067717;28;8846;-79
2023/07/26 01:53:57;;;;;;;;;8.60;8.00;;;;;20.14;62.93;97938.78;5069200;28;8843;-77
2023/07/26 01:56:27;;;;;;;;;8.00;7.20;;;;;20.37;62.24;97944.81;5103918;28;9605;-77
2023/07/26 01:58:56;;;;;;;;;14.20;10.40;;;;;20.60;61.24;97954.34;5086945;28;8847;-77
2023/07/26 02:01:24;;;;;;;;;8.00;8.00;;;;;20.42;62.00;97961.28;5087812;28;8891;-76
2023/07/26 02:03:53;;;;;;;;;10.60;9.00;;;;;20.31;62.49;97954.22;5066711;28;8867;-78
2023/07/26 02:06:21;;;;;;;;;11.40;8.20;;;;;20.34;62.46;97967.31;5066799;28;8854;-76
2023/07/26 02:08:50;;;;;;;;;12.40;10.60;;;;;20.17;63.21;97973.22;5066536;28;8874;-77
2023/07/26 02:11:19;;;;;;;;;8.20;7.20;;;;;20.18;63.25;97956.22;5066539;28;8981;-76
2023/07/26 02:13:49;;;;;;;;;8.60;8.60;;;;;20.03;63.76;97969.09;5084829;28;8870;-77
2023/07/26 02:16:18;;;;;;;;;13.20;10.40;;;;;19.56;65.96;97972.09;5103505;28;8863;-75
2023/07/26 02:18:47;;;;;;;;;8.80;8.80;;;;;19.46;66.06;97965.81;5087840;28;8835;-77
2023/07/26 02:21:16;;;;;;;;;8.00;6.20;;;;;19.56;65.92;97981.94;5095630;28;8859;-75
2023/07/26 02:23:45;;;;;;;;;9.60;9.40;;;;;19.63;65.49;97985.75;5032460;28;8884;-76
2023/07/26 02:26:14;;;;;;;;;8.20;7.00;;;;;19.92;64.65;97977.16;5070791;28;9657;-78
2023/07/26 02:28:43;;;;;;;;;8.80;6.60;;;;;20.24;63.00;97977.94;5045546;28;8832;-77
2023/07/26 02:31:13;;;;;;;;;10.00;10.00;;;;;20.23;63.03;97986.91;5090622;28;8844;-77
2023/07/26 02:33:42;;;;;;;;;6.40;6.40;;;;;20.36;62.74;97994.69;5090337;28;8878;-77
2023/07/26 02:36:10;;;;;;;;;6.60;6.20;;;;;20.46;62.37;98016.09;5090576;28;8871;-77
2023/07/26 02:38:39;;;;;;;;;8.80;7.00;;;;;20.64;61.54;98019.00;5103750;28;8818;-76
2023/07/26 02:41:08;;;;;;;;;9.20;7.80;;;;;20.70;61.14;98015.78;5053100;28;8862;-77
2023/07/26 02:43:37;;;;;;;;;7.20;6.80;;;;;20.86;60.70;98008.13;5071163;28;8866;-76
2023/07/26 02:46:09;;;;;;;;;7.40;6.80;;;;;20.77;61.07;98008.09;5071412;28;8835;-77
2023/07/26 02:48:39;;;;;;;;;8.40;7.00;;;;;20.65;61.80;98004.66;5107298;28;8824;-77
2023/07/26 02:51:08;;;;;;;;;7.60;7.60;;;;;20.29;63.11;98013.06;5107054;28;8855;-77
2023/07/26 02:53:37;;;;;;;;;10.00;10.00;;;;;19.67;66.30;98008.53;5090285;28;8882;-76
2023/07/26 02:56:05;;;;;;;;;7.80;7.40;;;;;19.05;69.20;98034.81;5090323;28;8856;-73
2023/07/26 02:58:34;;;;;;;;;11.40;9.40;;;;;18.46;75.48;98022.59;5056477;28;8836;-76
2023/07/26 03:01:03;;;;;;;;;8.60;8.00;;;;;18.33;76.40;98030.66;5053535;28;8840;-72
2023/07/26 03:03:32;;;;;;;;;11.20;9.60;;;;;17.92;77.21;98024.00;5055714;28;8880;-74
2023/07/26 03:06:02;;;;;;;;;9.60;9.60;;;;;18.40;75.93;98015.06;5038793;28;8902;-72
2023/07/26 03:08:31;;;;;;;;;7.20;6.40;;;;;18.53;74.26;98006.97;5106780;28;8874;-75
2023/07/26 03:10:59;;;;;;;;;7.80;7.80;;;;;18.57;74.23;98016.41;5090048;28;8953;-75
2023/07/26 03:13:28;;;;;;;;;9.60;8.60;;;;;18.78;73.45;98019.22;5091569;28;8836;-74
2023/07/26 03:15:57;;;;;;;;;9.20;9.20;;;;;19.00;72.60;98014.84;5056124;28;8860;-77
2023/07/26 03:18:26;;;;;;;;;9.20;8.40;;;;;18.94;71.67;98017.03;5071323;28;8843;-73
2023/07/26 03:20:55;;;;;;;;;8.00;7.20;;;;;18.66;73.24;98017.50;5090974;28;8877;-76
2023/07/26 03:23:25;;;;;;;;;7.00;6.80;;;;;18.92;72.80;98018.13;5106868;28;8831;-72
2023/07/26 03:25:54;;;;;;;;;9.00;8.60;;;;;18.77;72.55;98014.00;5080271;28;8977;-74
2023/07/26 03:28:22;;;;;;;;;8.00;8.00;;;;;19.00;72.01;98021.03;5088092;28;8862;-72
2023/07/26 03:30:51;;;;;;;;;9.00;9.00;;;;;19.28;71.03;98024.13;5071418;28;9748;-74
2023/07/26 03:33:20;;;;;;;;;8.00;7.80;;;;;19.36;69.57;98031.50;5038422;28;8867;-71
2023/07/26 03:35:49;;;;;;;;;11.60;11.20;;;;;19.37;69.20;98039.38;5087805;28;8855;-74
2023/07/26 03:38:18;;;;;;;;;9.20;8.60;;;;;19.55;68.79;98028.19;5108274;28;8859;-71
2023/07/26 03:40:48;;;;;;;;;9.00;9.00;;;;;19.48;68.71;98028.69;5091486;28;8913;-74
2023/07/26 03:43:17;;;;;;;;;10.60;9.00;;;;;19.65;67.44;98040.66;5108316;28;8848;-72
2023/07/26 03:45:46;;;;;;;;;8.00;7.00;;;;;19.18;68.80;98057.78;5091452;28;8952;-74
2023/07/26 03:48:15;;;;;;;;;7.00;6.20;;;;;19.13;69.01;98058.19;5087595;28;9103;-74
2023/07/26 03:50:44;;;;;;;;;7.80;7.80;;;;;19.42;67.67;98062.97;5063098;28;8872;-75
2023/07/26 03:53:13;;;;;;;;;10.40;9.40;;;;;19.32;67.57;98055.72;5067534;28;8992;-74
2023/07/26 03:55:41;;;;;;;;;9.40;9.00;;;;;19.62;67.00;98059.56;5067057;28;8848;-73
2023/07/26 03:58:12;;;;;;;;;10.20;9.20;;;;;19.74;66.66;98068.34;5067136;28;8962;-73
2023/07/26 04:00:43;;;;;;;;;6.00;6.00;;;;;19.96;65.69;98078.09;5033850;28;8859;-74
2023/07/26 04:03:12;;;;;;;;;6.40;6.40;;;;;19.80;65.25;98080.31;5067492;28;8874;-72
2023/07/26 04:05:41;;;;;;;;;8.20;8.20;;;;;19.67;65.31;98072.53;5019919;28;8871;-73
2023/07/26 04:08:10;;;;;;;;;9.00;9.00;;;;;19.48;65.57;98089.09;5068320;28;9623;-72
2023/07/26 04:10:38;;;;;;;;;8.80;8.40;;;;;19.71;65.00;98087.28;5087126;28;8878;-73
2023/07/26 04:13:07;;;;;;;;;11.00;10.20;;;;;19.66;64.83;98092.97;5086820;28;8869;-74
2023/07/26 04:15:37;;;;;;;;;13.00;12.00;;;;;19.72;64.77;98096.97;5086746;28;8851;-73
2023/07/26 04:18:08;;;;;;;;;10.80;10.80;;;;;19.87;64.17;98093.03;5087103;28;9663;-74
2023/07/26 04:20:36;;;;;;;;;12.80;11.20;;;;;19.98;63.26;98097.47;5087053;28;8848;-72
2023/07/26 04:23:06;;;;;;;;;4.20;4.20;;;;;20.07;63.25;98090.53;5061265;28;8840;-72
2023/07/26 04:25:34;;;;;;;;;8.40;8.40;;;;;20.10;62.92;98090.25;5054112;28;8855;-72
2023/07/26 04:28:03;;;;;;;;;10.20;10.20;;;;;19.42;65.53;98102.94;5088461;28;8832;-74
2023/07/26 04:30:32;;;;;;;;;8.20;8.20;;;;;19.06;67.14;98108.41;5089725;28;8949;-75
2023/07/26 04:33:03;;;;;;;;;10.60;10.00;;;;;18.49;70.23;98111.97;5070830;28;8834;-72
2023/07/26 04:35:31;;;;;;;;;10.00;10.00;;;;;18.59;70.32;98115.63;5032971;28;8862;-72
2023/07/26 04:38:00;;;;;;;;;8.20;7.60;;;;;18.44;70.19;98114.13;5057840;28;8836;-73
2023/07/26 04:40:29;;;;;;;;;8.20;8.20;;;;;18.34;70.58;98122.78;5086865;28;8928;-73
2023/07/26 04:42:58;;;;;;;;;7.00;6.60;;;;;18.02;71.84;98127.00;5068915;28;8830;-74
2023/07/26 04:45:26;;;;;;;;;8.40;7.80;;;;;18.20;71.37;98138.97;5068912;28;8892;-73
2023/07/26 04:47:55;;;;;;;;;49.25;41.75;;;;;18.61;69.47;98140.31;5066516;28;8919;-74
2023/07/26 04:50:25;;;;;;;;;9.60;9.60;;;;;18.40;70.31;98147.25;5068602;28;8905;-73
2023/07/26 04:52:54;;;;;;;;;8.00;8.00;;;;;18.23;69.38;98144.06;5049682;28;8978;-74
2023/07/26 04:55:23;;;;;;;;;7.80;7.80;;;;;17.92;70.89;98117.06;5052767;28;8835;-74
2023/07/26 04:57:52;;;;;;;;;8.60;8.60;;;;;18.47;68.97;98103.25;5088941;28;9359;-73
2023/07/26 05:00:21;;;;;;;;;10.00;9.00;;;;;18.87;67.29;98101.03;5050535;28;8871;-72
2023/07/26 05:02:49;;;;;;;;;7.40;7.40;;;;;19.22;65.88;98101.88;5016916;28;8847;-73
2023/07/26 05:05:18;;;;;;;;;10.00;9.40;;;;;19.46;65.29;98112.38;5068148;28;8865;-74
2023/07/26 05:07:48;;;;;;;;;9.40;9.40;;;;;19.36;65.37;98135.41;5068488;28;8881;-73
2023/07/26 05:10:17;;;;;;;;;13.40;13.40;;;;;19.05;66.93;98145.84;5076274;28;8839;-74
2023/07/26 05:12:47;;;;;;;;;12.80;12.40;;;;;18.70;68.56;98139.56;5069056;28;9008;-72
2023/07/26 05:15:15;;;;;;;;;11.20;9.80;;;;;18.62;68.47;98142.00;5032708;28;8897;-73
2023/07/26 05:17:45;;;;;;;;;8.60;8.40;;;;;18.96;68.00;98138.56;5067995;28;9675;-72
2023/07/26 05:20:14;;;;;;;;;11.60;10.20;;;;;19.50;66.01;98154.66;5067941;28;8838;-74
2023/07/26 05:22:43;;;;;;;;;10.60;10.60;;;;;19.64;65.13;98166.91;5083455;28;8865;-74
2023/07/26 05:25:13;;;;;;;;;10.00;10.00;;;;;20.05;64.12;98161.84;5065384;28;9237;-74
2023/07/26 05:27:42;;;;;;;;;4.80;4.80;;;;;20.09;63.15;98169.44;5051893;28;8878;-74
2023/07/26 05:30:11;;;;;;;;;10.80;10.40;;;;;19.81;64.41;98183.34;5067545;28;8863;-74
2023/07/26 05:32:40;;;;;;;;;11.00;10.60;;;;;19.93;63.81;98198.34;5067402;28;8846;-74
2023/07/26 05:35:11;;;;;;;;;11.40;11.20;;;;;20.01;64.07;98201.25;5067894;28;8881;-74
2023/07/26 05:37:41;;;;;;;;;9.40;9.40;;;;;20.28;63.13;98192.81;5067463;28;8850;-73
2023/07/26 05:40:10;;;;;;;;;13.80;12.40;;;;;20.41;61.77;98191.81;5058494;28;8873;-76
2023/07/26 05:42:40;;;;;;;;;12.20;12.20;;;;;19.66;64.50;98194.28;5071214;28;8843;-73
2023/07/26 05:45:10;;;;;;;;;9.40;9.40;;;;;19.67;64.65;98197.81;5073952;28;8842;-76
2023/07/26 05:47:39;;;;;;;;;12.60;10.60;;;;;19.55;64.90;98206.78;5018777;28;8877;-73
2023/07/26 05:50:10;;;;;;;;;10.00;10.00;;;;;19.84;63.63;98217.75;5066556;28;8847;-74
2023/07/26 05:52:39;;;;;;;;;9.00;9.00;;;;;20.03;63.36;98209.13;5067282;28;8846;-73
2023/07/26 05:55:11;;;;;;;;;13.40;12.40;;;;;20.01;62.83;98208.38;5066513;28;8977;-73
2023/07/26 05:57:42;;;;;;;;;14.40;12.00;;;;;19.97;63.13;98207.81;5066989;28;9705;-76
2023/07/26 06:00:13;;;;;;;;;12.80;12.20;;;;;19.68;64.21;98223.47;5067296;28;9627;-74
2023/07/26 06:02:42;;;;;;;;;14.00;12.60;;;;;19.10;66.52;98215.56;5067545;28;8870;-73
2023/07/26 06:05:11;;;;;;;;;11.40;11.40;;;;;18.87;67.11;98222.66;5067224;28;8882;-73
2023/07/26 06:07:40;;;;;;;;;12.80;12.40;;;;;19.35;64.87;98235.81;5067651;28;8851;-75
2023/07/26 06:10:09;;;;;;;;;9.40;9.40;;;;;19.60;64.27;98247.25;5068006;28;8872;-72
2023/07/26 06:12:39;;;;;;;;;8.40;7.00;;;;;19.71;63.33;98245.41;5067543;28;8858;-75
2023/07/26 06:15:09;;;;;;;;;9.00;9.00;;;;;18.78;66.86;98247.28;5067583;28;8878;-73
2023/07/26 06:17:39;;;;;;;;;10.20;9.40;;;;;18.29;69.32;98251.78;5082680;28;8835;-73
2023/07/26 06:20:10;;;;;;;;;11.00;9.80;;;;;17.98;70.78;98232.72;5065901;28;8858;-73
2023/07/26 06:22:39;;;;;;;;;9.00;9.00;;;;;17.58;72.66;98231.13;5067431;28;8859;-72
2023/07/26 06:25:08;;;;;;;;;8.20;8.20;;;;;17.62;72.52;98226.44;5067652;28;8843;-75
2023/07/26 06:27:38;;;;;;;;;6.60;6.60;;;;;17.60;72.37;98228.38;5067114;28;8930;-71
2023/07/26 06:30:09;;;;;;;;;9.60;7.40;;;;;17.44;72.09;98222.44;5079530;28;8846;-74
2023/07/26 06:32:38;;;;;;;;;9.40;8.60;;;;;17.45;71.78;98224.16;5066935;28;8846;-73
2023/07/26 06:35:08;;;;;;;;;6.60;6.40;;;;;17.58;70.41;98231.13;5067081;28;8870;-71
2023/07/26 06:37:37;;;;;;;;;7.40;7.40;;;;;17.37;69.78;98224.69;5067346;28;8855;-75
2023/07/26 06:40:07;;;;;;;;;6.60;6.60;;;;;17.57;68.63;98232.09;5066876;28;8973;-74
2023/07/26 06:42:36;;;;;;;;;4.40;4.40;;;;;17.39;67.66;98225.44;5067168;28;8850;-74
2023/07/26 06:45:05;;;;;;;;;4.20;4.20;;;;;17.22;67.49;98234.53;5065784;28;8862;-72
2023/07/26 06:47:36;;;;;;;;;4.00;4.00;;;;;17.10;67.56;98230.94;5048350;28;8878;-75
2023/07/26 06:50:06;;;;;;;;;5.60;5.20;;;;;17.03;67.45;98253.53;5082710;28;8961;-74
2023/07/26 06:52:35;;;;;;;;;3.60;3.60;;;;;17.05;67.16;98258.75;5067864;28;8835;-75
2023/07/26 06:55:04;;;;;;;;;4.00;1.20;;;;;17.07;66.19;98260.34;5067015;28;8901;-74
2023/07/26 06:57:34;;;;;;;;;3.40;3.40;;;;;17.01;66.35;98260.75;5066825;28;8851;-74
2023/07/26 07:00:06;;;;;;;;;4.00;3.00;;;;;16.94;66.44;98251.50;5067101;28;8830;-74
2023/07/26 07:02:36;;;;;;;;;5.00;4.00;;;;;17.14;65.38;98244.84;5067175;28;8854;-74
2023/07/26 07:05:06;;;;;;;;;4.60;4.60;;;;;17.22;65.04;98244.31;5066754;28;8965;-74
2023/07/26 07:07:35;;;;;;;;;3.40;3.00;;;;;17.29;63.96;98254.44;5065825;28;8897;-74
2023/07/26 07:10:05;;;;;;;;;3.60;3.60;;;;;17.31;63.70;98262.31;5065070;28;8874;-75
2023/07/26 07:12:35;;;;;;;;;4.60;4.60;;;;;17.34;63.74;98275.34;5069522;28;8854;-76
2023/07/26 07:15:04;;;;;;;;;4.00;4.00;;;;;17.68;62.38;98292.44;5070577;28;8866;-75
2023/07/26 07:17:33;;;;;;;;;4.60;4.60;;;;;17.80;62.20;98287.22;5069737;28;8881;-75
2023/07/26 07:20:05;;;;;;;;;5.60;5.60;;;;;17.92;61.68;98295.19;5069941;28;8870;-73
2023/07/26 07:22:34;;;;;;;;;6.00;4.60;;;;;18.12;61.31;98307.09;5070641;28;8858;-73
2023/07/26 07:25:03;;;;;;;;;3.20;3.20;;;;;18.02;61.70;98308.66;5018843;28;8886;-74
2023/07/26 07:27:32;;;;;;;;;7.00;6.00;;;;;18.31;62.12;98306.59;5068500;28;8870;-77
2023/07/26 07:30:01;;;;;;;;;6.60;6.40;;;;;18.55;61.55;98297.75;5070977;28;8943;-77
2023/07/26 07:32:30;;;;;;;;;6.20;6.20;;;;;18.09;62.19;98306.44;5051601;28;9077;-79
2023/07/26 07:34:59;;;;;;;;;6.80;6.80;;;;;18.33;61.40;98312.66;5068876;28;8853;-77
2023/07/26 07:37:29;;;;;;;;;3.80;3.80;;;;;18.15;60.59;98321.97;5068671;28;8950;-78
2023/07/26 07:39:58;;;;;;;;;6.40;6.40;;;;;18.45;60.35;98318.03;5051411;28;8889;-77
2023/07/26 07:42:27;;;;;;;;;9.20;7.40;;;;;18.79;58.63;98321.75;5069495;28;8935;-77
2023/07/26 07:44:55;;;;;;;;;8.60;5.20;;;;;18.93;57.14;98334.03;5070143;28;8866;-75
2023/07/26 07:47:25;;;;;;;;;6.20;5.60;;;;;18.68;58.38;98324.31;5051432;28;8853;-74
2023/07/26 07:49:54;;;;;;;;;4.60;4.60;;;;;18.73;57.87;98324.84;5055724;28;9000;-77
2023/07/26 07:52:22;;;;;;;;;9.40;7.40;;;;;18.79;57.63;98316.44;5068717;28;8862;-78
2023/07/26 07:54:53;;;;;;;;;5.00;4.60;;;;;18.58;56.75;98313.50;5048474;28;8873;-76
2023/07/26 07:57:22;;;;;;;;;5.80;5.80;;;;;18.64;57.40;98312.22;5050533;28;8862;-76
2023/07/26 07:59:51;;;;;;;;;6.20;5.60;;;;;18.55;57.38;98325.25;5069406;28;9055;-75
2023/07/26 08:02:21;;;;;;;;;5.40;4.20;;;;;18.52;57.89;98328.13;5069896;28;8946;-77
2023/07/26 08:04:50;;;;;;;;;6.00;6.00;;;;;18.65;57.25;98328.06;5070193;28;8866;-76
2023/07/26 08:07:19;;;;;;;;;6.20;6.20;;;;;18.69;57.55;98328.69;5069596;28;8830;-73
2023/07/26 08:09:48;;;;;;;;;7.00;7.00;;;;;18.66;57.77;98329.75;5014830;28;8884;-78
2023/07/26 08:12:18;;;;;;;;;5.00;4.00;;;;;18.96;56.47;98331.13;5067684;28;8947;-75
2023/07/26 08:14:48;;;;;;;;;5.40;5.40;;;;;19.40;55.23;98347.38;5069385;28;9135;-78
2023/07/26 08:17:17;;;;;;;;;3.20;2.80;;;;;18.72;56.28;98339.09;5069168;28;8888;-75
2023/07/26 08:19:48;;;;;;;;;3.60;3.60;;;;;18.89;55.60;98349.41;5018393;28;8860;-78
2023/07/26 08:22:17;;;;;;;;;4.00;4.00;;;;;18.63;56.19;98353.97;5067531;28;8862;-76
2023/07/26 08:24:46;;;;;;;;;6.20;5.20;;;;;18.81;56.06;98362.41;5069620;28;9786;-74
2023/07/26 08:27:16;;;;;;;;;4.20;4.20;;;;;19.02;55.67;98356.47;5068767;28;8862;-73
2023/07/26 08:29:46;;;;;;;;;5.00;4.40;;;;;18.98;55.23;98349.66;5069306;28;8842;-77
2023/07/26 08:32:16;;;;;;;;;5.00;5.00;;;;;18.96;55.97;98355.09;5069068;28;8858;-76
2023/07/26 08:34:45;;;;;;;;;4.60;4.60;;;;;18.57;57.41;98365.03;5016526;28;8842;-70
2023/07/26 08:37:14;;;;;;;;;6.20;6.20;;;;;18.78;56.60;98346.66;5066130;28;8902;-67
2023/07/26 08:39:42;;;;;;;;;7.00;7.00;;;;;19.13;55.89;98329.88;5065949;28;8882;-67
2023/07/26 08:42:12;;;;;;;;;8.00;7.80;;;;;19.24;56.65;98339.72;5065876;28;8870;-68
2023/07/26 08:44:42;;;;;;;;;9.40;7.40;;;;;19.54;57.28;98327.66;5065451;28;8965;-68
2023/07/26 08:47:14;;;;;;;;;8.20;8.20;;;;;19.65;57.36;98322.34;5064692;28;8952;-67
2023/07/26 08:49:43;;;;;;;;;7.20;7.20;;;;;19.70;57.24;98317.53;5015935;28;8954;-68
2023/07/26 08:52:15;;;;;;;;;11.40;9.00;;;;;19.98;56.88;98334.03;5066109;28;8929;-69
2023/07/26 08:54:45;;;;;;;;;10.20;10.20;;;;;20.09;56.93;98336.69;5066250;28;8977;-69
2023/07/26 08:57:16;;;;;;;;;8.60;8.00;;;;;19.54;58.95;98344.53;5066097;28;8935;-69
2023/07/26 08:59:44;;;;;;;;;10.00;10.00;;;;;19.54;59.36;98338.34;5065909;28;8947;-68
2023/07/26 09:02:17;;;;;;;;;10.80;10.00;;;;;19.94;58.50;98346.75;5065968;28;8888;-69
2023/07/26 09:04:47;;;;;;;;;6.00;6.00;;;;;20.52;55.10;98345.72;5065760;28;8897;-70
2023/07/26 09:07:16;;;;;;;;;9.00;9.00;;;;;21.04;53.98;98358.34;5068633;28;8873;-68
2023/07/26 09:09:44;;;;;;;;;12.40;9.60;;;;;20.76;52.56;98366.91;5068353;28;8935;-67
2023/07/26 09:12:25;;;;;;;;;8.60;8.00;;;;;19.74;55.17;98377.63;5068358;28;8842;-68
2023/07/26 09:14:57;;;;;;;;;9.20;9.20;;;;;19.69;56.40;98382.50;5068176;28;8993;-69
2023/07/26 09:17:39;;;;;;;;;11.20;9.00;;;;;20.03;55.87;98361.19;5068429;28;8866;-68
2023/07/26 09:20:26;;;;;;;;;7.20;7.20;;;;;20.29;54.51;98365.31;5083642;28;8866;-68
2023/07/26 09:23:00;;;;;;;;;6.80;6.80;;;;;20.13;54.79;98363.97;5032630;28;8973;-67
2023/07/26 09:25:32;;;;;;;;;8.20;8.20;;;;;19.75;56.34;98365.16;5067910;28;8980;-68
2023/07/26 09:28:02;;;;;;;;;20.20;20.20;;;;;19.68;57.17;98364.78;5067962;28;8929;-67
2023/07/26 09:30:36;;;;;;;;;5.20;5.20;;;;;19.42;57.56;98372.09;5068094;28;10010;-68
2023/07/26 09:33:09;;;;;;;;;8.40;8.40;;;;;19.12;59.26;98371.66;5068335;28;8849;-68
2023/07/26 09:35:44;;;;;;;;;12.20;11.80;;;;;19.39;58.94;98369.66;5067780;28;8858;-68
2023/07/26 09:38:15;;;;;;;;;8.00;7.80;;;;;19.47;58.10;98367.25;5068052;28;9654;-67
2023/07/26 09:40:44;;;;;;;;;9.60;9.60;;;;;19.38;58.49;98357.31;5065954;28;8839;-71
2023/07/26 09:43:13;;;;;;;;;12.20;11.20;;;;;19.63;57.79;98358.94;5015861;28;8842;-68
2023/07/26 09:45:42;;;;;;;;;9.80;9.80;;;;;19.44;58.28;98355.03;5067596;28;10041;-72
2023/07/26 09:48:14;;;;;;;;;13.00;10.40;;;;;19.63;57.30;98348.28;5066272;28;8873;-69
2023/07/26 09:50:47;;;;;;;;;10.40;8.60;;;;;19.32;57.12;98350.63;5067707;28;8842;-70
2023/07/26 09:53:23;;;;;;;;;10.40;9.00;;;;;19.40;57.03;98350.88;5067681;28;8846;-67
2023/07/26 09:55:52;;;;;;;;;8.00;8.00;;;;;19.34;56.92;98354.03;5067171;28;8857;-69
2023/07/26 09:58:33;;;;;;;;;6.00;6.00;;;;;19.42;55.49;98350.75;5066850;28;9074;-77
2023/07/26 10:01:02;;;;;;;;;7.00;7.00;;;;;19.51;54.91;98352.72;5065870;28;8862;-79
2023/07/26 10:03:36;;;;;;;;;8.20;8.20;;;;;19.59;54.15;98377.00;5067907;28;8970;-78
2023/07/26 10:06:07;;;;;;;;;7.60;6.80;;;;;19.77;53.51;98373.91;5066034;28;8858;-78
2023/07/26 10:08:37;;;;;;;;;6.00;6.00;;;;;19.71;52.71;98375.22;5067140;28;8854;-78
2023/07/26 10:11:07;;;;;;;;;6.60;6.00;;;;;20.00;52.44;98369.41;5066578;28;8878;-77
2023/07/26 10:13:38;;;;;;;;;6.60;6.60;;;;;19.78;52.16;98368.41;5053208;28;8885;-75
2023/07/26 10:16:07;;;;;;;;;6.60;6.60;;;;;19.94;52.65;98376.09;5065998;28;8870;-79
2023/07/26 10:18:38;;;;;;;;;8.00;8.00;;;;;20.35;51.63;98365.78;5035469;28;9004;-79
2023/07/26 10:21:10;;;;;;;;;5.80;5.40;;;;;20.87;50.92;98372.22;5067681;28;8865;-76
2023/07/26 10:23:44;;;;;;;;;9.80;9.80;;;;;21.09;51.91;98373.13;5064891;28;8827;-77
2023/07/26 10:26:13;;;;;;;;;10.00;10.00;;;;;20.83;53.31;98376.13;5065426;28;8853;-77
2023/07/26 10:28:43;;;;;;;;;11.00;11.00;;;;;20.76;53.90;98385.59;5064802;28;9048;-74
2023/07/26 10:31:13;;;;;;;;;10.80;9.80;;;;;21.40;52.60;98379.44;5065177;28;8965;-73
2023/07/26 10:33:47;;;;;;;;;8.40;8.40;;;;;21.56;51.71;98390.53;5065011;28;8850;-73
2023/07/26 10:36:16;;;;;;;;;9.80;9.20;;;;;21.91;51.30;98381.31;5048753;28;8846;-74
2023/07/26 10:38:48;;;;;;;;;10.20;10.00;;;;;21.44;51.70;98386.19;5064638;28;8876;-75
2023/07/26 10:41:25;;;;;;;;;9.60;9.60;;;;;20.61;53.89;98404.56;5064968;28;8866;-74
2023/07/26 10:44:05;;;;;;;;;13.00;12.60;;;;;20.85;53.93;98393.72;5031792;28;9686;-73
2023/07/26 10:46:48;;;;;;;;;11.40;10.40;;;;;20.83;53.69;98392.97;5067843;28;8984;-73
2023/07/26 10:49:24;;;;;;;;;13.40;13.40;;;;;20.61;54.06;98401.88;5051769;28;8854;-73
2023/07/26 10:51:58;;;;;;;;;12.20;12.20;;;;;20.22;55.02;98409.44;5068462;28;9123;-73
2023/07/26 10:54:39;;;;;;;;;13.40;12.00;;;;;20.38;54.75;98410.91;5069019;28;8854;-73
2023/07/26 10:57:31;;;;;;;;;12.60;12.40;;;;;20.35;54.98;98409.34;5070627;28;8858;-71
2023/07/26 11:00:03;;;;;;;;;12.60;12.00;;;;;19.67;55.62;98427.09;5069394;28;8865;-72
2023/07/26 11:02:39;;;;;;;;;11.80;11.80;;;;;19.80;55.98;98425.16;5069593;28;8863;-71
2023/07/26 11:05:13;;;;;;;;;11.40;10.40;;;;;19.73;56.42;98433.75;5069356;28;8860;-73
2023/07/26 11:07:51;;;;;;;;;12.80;12.80;;;;;19.69;56.12;98425.16;5070451;28;9580;-76
2023/07/26 11:10:22;;;;;;;;;10.40;9.80;;;;;19.71;56.36;98425.88;5070630;28;8911;-73
2023/07/26 11:12:52;;;;;;;;;9.40;9.40;;;;;19.45;57.53;98430.50;5071092;28;8866;-72
2023/07/26 11:15:30;;;;;;;;;9.20;9.00;;;;;19.59;57.59;98427.66;5071075;28;8893;-73
2023/07/26 11:18:20;;;;;;;;;25.40;22.80;;;;;19.35;58.38;98433.00;5070856;28;8842;-76
2023/07/26 11:20:52;;;;;;;;;22.20;20.00;;;;;19.48;58.42;98440.91;5070442;28;8850;-71
2023/07/26 11:23:23;;;;;;;;;18.60;18.00;;;;;19.35;58.34;98440.13;5070600;28;8893;-73
2023/07/26 11:25:57;;;;;;;;;14.80;14.40;;;;;19.54;57.99;98439.63;5053061;28;8847;-69
2023/07/26 11:28:30;;;;;;;;;14.00;12.20;;;;;19.44;58.07;98439.44;5068814;28;8838;-72
2023/07/26 11:31:00;;;;;;;;;11.20;11.20;;;;;19.70;57.24;98442.81;5070408;28;8842;-72
2023/07/26 11:33:30;;;;;;;;;12.60;12.60;;;;;19.69;57.31;98438.47;5070866;28;9596;-73
2023/07/26 11:36:02;;;;;;;;;12.40;10.80;;;;;19.78;57.36;98442.25;5070554;28;9453;-71
2023/07/26 11:38:31;;;;;;;;;14.00;12.20;;;;;19.74;57.44;98433.63;5070457;28;8870;-77
2023/07/26 11:41:01;;;;;;;;;12.00;12.00;;;;;19.91;57.31;98432.31;5070074;28;8947;-69
2023/07/26 11:43:31;;;;;;;;;7.60;7.20;;;;;19.98;57.00;98433.56;5070431;28;9630;-71
2023/07/26 11:46:00;;;;;;;;;12.60;11.60;;;;;19.89;57.13;98421.75;5028943;28;8852;-73
2023/07/26 11:48:32;;;;;;;;;12.00;12.00;;;;;20.10;56.35;98427.28;5048899;28;8983;-72
2023/07/26 11:51:05;;;;;;;;;10.00;9.60;;;;;20.19;55.74;98431.00;5056452;28;8855;-71